createdAt,value
2023-08-08T00:01:10.540Z,15.71
2023-08-08T00:03:37.202Z,15.72
2023-08-08T00:06:03.862Z,15.69
2023-08-08T00:08:30.349Z,15.66
2023-08-08T00:10:57.454Z,15.64
2023-08-08T00:13:23.977Z,15.61
2023-08-08T00:15:50.542Z,15.61
2023-08-08T00:18:17.077Z,15.56
2023-08-08T00:20:43.595Z,15.52
2023-08-08T00:23:10.172Z,15.54
2023-08-08T00:25:37.319Z,15.54
2023-08-08T00:28:04.658Z,15.54
2023-08-08T00:30:31.227Z,15.53
2023-08-08T00:32:57.787Z,15.52
2023-08-08T00:35:24.325Z,15.50
2023-08-08T00:37:50.868Z,15.48
2023-08-08T00:40:17.441Z,15.48
2023-08-08T00:42:44.009Z,15.46
2023-08-08T00:45:10.736Z,15.51
2023-08-08T00:47:37.445Z,15.49
2023-08-08T00:50:05.266Z,15.44
2023-08-08T00:52:32.289Z,15.43
2023-08-08T00:55:00.237Z,15.48
2023-08-08T00:57:27.056Z,15.46
2023-08-08T00:59:53.612Z,15.46
2023-08-08T01:02:20.198Z,15.42
2023-08-08T01:04:46.995Z,15.40
2023-08-08T01:07:24.197Z,15.38
2023-08-08T01:09:54.658Z,15.32
2023-08-08T01:12:21.944Z,15.26
2023-08-08T01:14:48.473Z,15.20
2023-08-08T01:17:15.350Z,15.23
2023-08-08T01:19:42.480Z,15.16
2023-08-08T01:22:17.478Z,15.14
2023-08-08T01:24:45.553Z,15.07
2023-08-08T01:27:12.265Z,15.04
2023-08-08T01:29:40.267Z,14.92
2023-08-08T01:32:07.213Z,14.85
2023-08-08T01:34:33.761Z,14.79
2023-08-08T01:37:31.127Z,14.74
2023-08-08T01:40:00.446Z,14.70
2023-08-08T01:42:28.684Z,14.73
2023-08-08T01:44:56.994Z,14.83
2023-08-08T01:47:23.684Z,14.84
2023-08-08T01:49:50.294Z,14.86
2023-08-08T01:52:16.800Z,14.84
2023-08-08T01:54:43.883Z,14.85
2023-08-08T01:57:10.574Z,14.82
2023-08-08T01:59:37.018Z,14.81
2023-08-08T02:02:03.695Z,14.82
2023-08-08T02:04:30.580Z,14.75
2023-08-08T02:06:56.992Z,14.72
2023-08-08T02:09:23.573Z,14.78
2023-08-08T02:11:50.176Z,14.78
2023-08-08T02:14:16.651Z,14.74
2023-08-08T02:16:43.617Z,14.74
2023-08-08T02:19:10.222Z,14.69
2023-08-08T02:21:36.807Z,14.64
2023-08-08T02:24:03.611Z,14.59
2023-08-08T02:26:30.091Z,14.60
2023-08-08T02:28:56.627Z,14.60
2023-08-08T02:31:23.173Z,14.52
2023-08-08T02:33:51.445Z,14.49
2023-08-08T02:36:19.153Z,14.46
2023-08-08T02:38:46.220Z,14.43
2023-08-08T02:41:12.683Z,14.39
2023-08-08T02:43:39.204Z,14.41
2023-08-08T02:46:05.717Z,14.41
2023-08-08T02:48:32.464Z,14.41
2023-08-08T02:50:58.989Z,14.40
2023-08-08T02:53:25.486Z,14.32
2023-08-08T02:55:51.987Z,14.26
2023-08-08T02:58:18.522Z,14.17
2023-08-08T03:00:45.071Z,14.19
2023-08-08T03:03:11.548Z,14.15
2023-08-08T03:05:38.019Z,14.12
2023-08-08T03:08:04.835Z,14.12
2023-08-08T03:10:31.253Z,14.07
2023-08-08T03:12:57.698Z,14.09
2023-08-08T03:15:24.443Z,14.01
2023-08-08T03:17:50.994Z,14.04
2023-08-08T03:20:17.716Z,14.06
2023-08-08T03:22:44.360Z,14.06
2023-08-08T03:25:11.331Z,14.08
2023-08-08T03:27:37.811Z,14.06
2023-08-08T03:30:04.752Z,14.11
2023-08-08T03:32:31.348Z,14.06
2023-08-08T03:34:57.831Z,14.03
2023-08-08T03:37:24.528Z,13.97
2023-08-08T03:39:50.959Z,14.02
2023-08-08T03:42:17.695Z,14.05
2023-08-08T03:44:46.221Z,14.07
2023-08-08T03:47:19.303Z,14.05
2023-08-08T03:49:46.824Z,14.02
2023-08-08T03:52:13.904Z,14.03
2023-08-08T03:54:40.801Z,14.05
2023-08-08T03:57:07.652Z,13.98
2023-08-08T03:59:34.163Z,13.99
2023-08-08T04:02:00.982Z,13.97
2023-08-08T04:04:27.737Z,13.94
2023-08-08T04:06:54.191Z,13.91
2023-08-08T04:09:20.684Z,13.88
2023-08-08T04:11:47.153Z,13.92
2023-08-08T04:14:13.732Z,13.94
2023-08-08T04:16:40.775Z,13.93
2023-08-08T04:19:07.310Z,13.90
2023-08-08T04:21:33.897Z,13.85
2023-08-08T04:24:01.408Z,13.92
2023-08-08T04:26:27.892Z,13.88
2023-08-08T04:28:54.502Z,13.92
2023-08-08T04:31:21.032Z,13.99
2023-08-08T04:33:47.584Z,13.95
2023-08-08T04:36:14.099Z,13.92
2023-08-08T04:38:40.605Z,14.00
2023-08-08T04:41:07.041Z,14.01
2023-08-08T04:43:33.477Z,14.06
2023-08-08T04:45:59.958Z,14.08
2023-08-08T04:48:26.458Z,14.07
2023-08-08T04:50:52.955Z,14.05
2023-08-08T04:53:19.496Z,14.10
2023-08-08T04:55:45.950Z,14.16
2023-08-08T04:58:12.462Z,14.27
2023-08-08T05:00:39.089Z,14.37
2023-08-08T05:03:05.695Z,14.46
2023-08-08T05:05:32.242Z,14.46
2023-08-08T05:07:58.755Z,14.44
2023-08-08T05:10:25.357Z,14.35
2023-08-08T05:12:51.917Z,14.33
2023-08-08T05:15:18.386Z,14.28
2023-08-08T05:17:45.006Z,14.24
2023-08-08T05:20:11.875Z,14.22
2023-08-08T05:22:38.442Z,14.31
2023-08-08T05:25:05.425Z,14.36
2023-08-08T05:27:31.983Z,14.33
2023-08-08T05:29:58.590Z,14.33
2023-08-08T05:32:25.098Z,14.29
2023-08-08T05:34:52.526Z,14.23
2023-08-08T05:37:19.131Z,14.17
2023-08-08T05:39:46.128Z,14.30
2023-08-08T05:42:12.861Z,14.49
2023-08-08T05:44:39.514Z,14.73
2023-08-08T05:47:06.373Z,15.05
2023-08-08T05:49:32.907Z,15.29
2023-08-08T05:51:59.991Z,15.52
2023-08-08T05:54:26.736Z,15.76
2023-08-08T05:56:54.241Z,15.93
2023-08-08T05:59:20.867Z,15.98
2023-08-08T06:01:47.539Z,16.11
2023-08-08T06:04:15.062Z,16.37
2023-08-08T06:06:42.283Z,16.45
2023-08-08T06:09:09.852Z,16.64
2023-08-08T06:11:36.525Z,16.49
2023-08-08T06:14:03.643Z,16.45
2023-08-08T06:16:30.590Z,16.69
2023-08-08T06:18:57.154Z,16.66
2023-08-08T06:21:23.667Z,16.64
2023-08-08T06:23:51.100Z,16.98
2023-08-08T06:26:17.650Z,17.00
2023-08-08T06:28:44.255Z,16.75
2023-08-08T06:31:10.788Z,16.61
2023-08-08T06:33:37.386Z,16.41
2023-08-08T06:36:04.435Z,16.43
2023-08-08T06:38:34.837Z,16.37
2023-08-08T06:41:04.560Z,16.27
2023-08-08T06:43:32.460Z,16.29
2023-08-08T06:45:58.968Z,16.34
2023-08-08T06:48:25.513Z,16.30
2023-08-08T06:50:52.107Z,16.14
2023-08-08T06:53:19.230Z,16.18
2023-08-08T06:55:45.740Z,16.14
2023-08-08T06:58:12.247Z,16.14
2023-08-08T07:00:38.783Z,16.15
2023-08-08T07:03:05.886Z,16.12
2023-08-08T07:05:32.444Z,16.11
2023-08-08T07:07:58.995Z,16.14
2023-08-08T07:10:25.504Z,16.17
2023-08-08T07:12:52.610Z,16.12
2023-08-08T07:15:20.825Z,16.05
2023-08-08T07:17:47.455Z,16.04
2023-08-08T07:20:15.094Z,16.12
2023-08-08T07:22:41.797Z,16.19
2023-08-08T07:25:08.711Z,16.65
2023-08-08T07:27:35.205Z,16.76
2023-08-08T07:30:02.275Z,16.71
2023-08-08T07:32:29.893Z,16.63
2023-08-08T07:34:57.397Z,16.70
2023-08-08T07:37:23.864Z,16.72
2023-08-08T07:39:52.605Z,16.56
2023-08-08T07:42:19.118Z,16.42
2023-08-08T07:44:45.568Z,16.36
2023-08-08T07:47:13.743Z,16.70
2023-08-08T07:49:40.326Z,17.13
2023-08-08T07:52:08.076Z,17.62
2023-08-08T07:54:35.314Z,17.90
2023-08-08T07:57:01.794Z,17.60
2023-08-08T07:59:28.294Z,17.52
2023-08-08T08:01:54.875Z,17.40
2023-08-08T08:04:21.429Z,17.14
2023-08-08T08:06:48.408Z,17.22
2023-08-08T08:09:15.021Z,17.74
2023-08-08T08:11:41.528Z,17.74
2023-08-08T08:14:08.522Z,17.47
2023-08-08T08:16:35.787Z,17.29
2023-08-08T08:19:02.352Z,17.61
2023-08-08T08:21:28.900Z,17.42
2023-08-08T08:23:55.551Z,17.99
2023-08-08T08:26:22.002Z,18.17
2023-08-08T08:28:48.436Z,18.18
2023-08-08T08:31:14.965Z,17.72
2023-08-08T08:33:41.555Z,17.50
2023-08-08T08:36:08.052Z,17.16
2023-08-08T08:38:34.514Z,16.90
2023-08-08T08:41:03.361Z,17.44
2023-08-08T08:43:31.988Z,17.24
2023-08-08T08:46:03.590Z,16.85
2023-08-08T08:48:30.697Z,16.44
2023-08-08T08:50:58.682Z,16.25
2023-08-08T08:53:25.228Z,16.11
2023-08-08T08:55:52.911Z,16.04
2023-08-08T08:58:20.911Z,16.35
2023-08-08T09:00:47.932Z,16.54
2023-08-08T09:03:14.643Z,16.56
2023-08-08T09:05:43.003Z,16.95
2023-08-08T09:08:10.377Z,17.40
2023-08-08T09:10:36.885Z,17.63
2023-08-08T09:13:03.422Z,17.77
2023-08-08T09:15:34.545Z,17.33
2023-08-08T09:18:02.389Z,17.01
2023-08-08T09:20:29.534Z,17.35
2023-08-08T09:22:56.550Z,17.54
2023-08-08T09:25:24.494Z,17.32
2023-08-08T09:27:54.467Z,17.03
2023-08-08T09:30:21.150Z,16.90
2023-08-08T09:32:48.187Z,17.30
2023-08-08T09:35:15.902Z,17.54
2023-08-08T09:37:43.023Z,17.57
2023-08-08T09:40:12.222Z,17.82
2023-08-08T09:42:41.131Z,17.58
2023-08-08T09:45:09.760Z,17.04
2023-08-08T09:47:37.371Z,16.56
2023-08-08T09:50:06.282Z,16.12
2023-08-08T09:52:34.813Z,15.58
2023-08-08T09:55:01.640Z,15.44
2023-08-08T09:57:28.548Z,15.41
2023-08-08T09:59:56.358Z,15.94
2023-08-08T10:02:22.883Z,16.62
2023-08-08T10:04:49.584Z,16.79
2023-08-08T10:07:16.193Z,16.73
2023-08-08T10:09:42.990Z,17.17
2023-08-08T10:12:09.913Z,17.64
2023-08-08T10:14:38.975Z,17.05
2023-08-08T10:17:06.529Z,16.79
2023-08-08T10:19:33.668Z,16.64
2023-08-08T10:22:05.045Z,16.70
2023-08-08T10:24:39.672Z,17.03
2023-08-08T10:27:06.358Z,17.48
2023-08-08T10:29:34.789Z,17.84
2023-08-08T10:32:04.335Z,18.02
2023-08-08T10:34:43.698Z,18.41
2023-08-08T10:37:16.610Z,18.45
2023-08-08T10:39:58.675Z,18.12
2023-08-08T10:42:27.380Z,18.11
2023-08-08T10:44:56.140Z,18.55
2023-08-08T10:47:26.742Z,18.21
2023-08-08T10:50:07.930Z,17.78
2023-08-08T10:52:54.122Z,18.05
2023-08-08T10:55:22.672Z,18.41
2023-08-08T10:58:00.011Z,18.54
2023-08-08T11:00:30.732Z,18.63
2023-08-08T11:02:58.911Z,18.48
2023-08-08T11:05:27.531Z,18.55
2023-08-08T11:07:55.542Z,18.94
2023-08-08T11:10:23.551Z,18.98
2023-08-08T11:12:59.016Z,18.75
2023-08-08T11:15:25.605Z,18.69
2023-08-08T11:17:53.743Z,18.79
2023-08-08T11:20:20.374Z,18.91
2023-08-08T11:22:53.214Z,19.21
2023-08-08T11:25:19.742Z,18.74
2023-08-08T11:27:53.270Z,18.82
2023-08-08T11:30:21.471Z,18.54
2023-08-08T11:33:15.272Z,18.30
2023-08-08T11:35:36.276Z,18.50
2023-08-08T11:38:05.248Z,18.80
2023-08-08T11:40:32.567Z,19.02
2023-08-08T11:42:59.921Z,19.08
2023-08-08T11:45:26.740Z,19.22
2023-08-08T11:47:56.806Z,19.14
2023-08-08T11:50:25.788Z,19.02
2023-08-08T11:52:56.805Z,18.73
2023-08-08T11:55:29.958Z,18.87
2023-08-08T11:58:03.581Z,18.90
2023-08-08T12:00:31.576Z,18.90
2023-08-08T12:02:59.595Z,18.81
2023-08-08T12:05:26.690Z,19.06
2023-08-08T12:07:53.381Z,19.16
2023-08-08T12:10:22.625Z,19.57
2023-08-08T12:12:56.109Z,19.40
2023-08-08T12:15:22.741Z,18.87
2023-08-08T12:17:50.340Z,18.81
2023-08-08T12:20:17.220Z,18.97
2023-08-08T12:22:43.781Z,18.80
2023-08-08T12:25:10.727Z,18.95
2023-08-08T12:27:39.916Z,19.14
2023-08-08T12:30:08.127Z,18.98
2023-08-08T12:32:34.653Z,19.43
2023-08-08T12:35:01.110Z,19.30
2023-08-08T12:37:27.603Z,19.49
2023-08-08T12:39:54.033Z,19.64
2023-08-08T12:42:20.536Z,19.61
2023-08-08T12:44:48.017Z,19.76
2023-08-08T12:47:15.957Z,19.64
2023-08-08T12:49:43.108Z,19.45
2023-08-08T12:52:10.272Z,19.68
2023-08-08T12:54:37.273Z,19.54
2023-08-08T12:57:05.046Z,19.85
2023-08-08T12:59:31.721Z,19.83
2023-08-08T13:01:58.651Z,19.31
2023-08-08T13:04:26.306Z,19.45
2023-08-08T13:06:52.839Z,19.44
2023-08-08T13:09:19.437Z,19.74
2023-08-08T13:11:46.434Z,19.81
2023-08-08T13:14:12.917Z,19.86
2023-08-08T13:16:39.597Z,19.42
2023-08-08T13:19:06.431Z,19.89
2023-08-08T13:21:33.089Z,20.33
2023-08-08T13:23:59.554Z,20.55
2023-08-08T13:26:26.108Z,20.36
2023-08-08T13:28:52.785Z,20.42
2023-08-08T13:31:19.295Z,20.43
2023-08-08T13:33:45.818Z,20.37
2023-08-08T13:36:12.353Z,20.37
2023-08-08T13:38:39.006Z,20.82
2023-08-08T13:41:05.523Z,20.92
2023-08-08T13:43:32.021Z,20.93
2023-08-08T13:45:58.688Z,21.09
2023-08-08T13:48:25.365Z,21.51
2023-08-08T13:50:52.362Z,20.04
2023-08-08T13:53:18.832Z,20.95
2023-08-08T13:55:45.816Z,20.94
2023-08-08T13:58:12.442Z,20.81
2023-08-08T14:00:38.921Z,21.23
2023-08-08T14:03:06.164Z,21.87
2023-08-08T14:05:32.859Z,21.94
2023-08-08T14:07:59.353Z,22.11
2023-08-08T14:10:25.842Z,21.85
2023-08-08T14:12:52.454Z,21.84
2023-08-08T14:15:19.011Z,22.20
2023-08-08T14:17:46.601Z,21.89
2023-08-08T14:20:13.178Z,22.34
2023-08-08T14:22:39.772Z,21.92
2023-08-08T14:25:09.965Z,21.40
2023-08-08T14:27:36.622Z,21.52
2023-08-08T14:30:05.030Z,22.26
2023-08-08T14:32:31.819Z,22.59
2023-08-08T14:34:59.866Z,22.70
2023-08-08T14:37:26.588Z,22.61
2023-08-08T14:39:53.100Z,22.38
2023-08-08T14:42:20.327Z,22.61
2023-08-08T14:44:46.764Z,22.86
2023-08-08T14:47:13.277Z,23.47
2023-08-08T14:49:39.748Z,23.11
2023-08-08T14:52:06.565Z,22.99
2023-08-08T14:54:33.024Z,22.96
2023-08-08T14:57:00.944Z,21.91
2023-08-08T14:59:27.954Z,22.01
2023-08-08T15:01:54.555Z,21.49
2023-08-08T15:04:21.168Z,21.98
2023-08-08T15:06:47.990Z,22.38
2023-08-08T15:09:14.534Z,22.83
2023-08-08T15:11:41.600Z,22.55
2023-08-08T15:14:08.111Z,22.65
2023-08-08T15:16:34.579Z,21.83
2023-08-08T15:19:01.100Z,21.73
2023-08-08T15:21:27.544Z,21.88
2023-08-08T15:23:54.147Z,21.69
2023-08-08T15:26:23.244Z,22.01
2023-08-08T15:28:50.421Z,20.72
2023-08-08T15:31:19.638Z,19.75
2023-08-08T15:33:46.520Z,19.58
2023-08-08T15:36:13.032Z,20.09
2023-08-08T15:38:39.558Z,20.39
2023-08-08T15:41:06.030Z,20.41
2023-08-08T15:43:32.518Z,21.21
2023-08-08T15:46:00.284Z,21.73
2023-08-08T15:48:27.154Z,21.78
2023-08-08T15:50:53.740Z,22.19
2023-08-08T15:53:20.867Z,21.70
2023-08-08T15:55:47.642Z,21.17
2023-08-08T15:58:14.222Z,22.79
2023-08-08T16:00:40.864Z,22.46
2023-08-08T16:03:07.485Z,20.47
2023-08-08T16:05:34.211Z,19.55
2023-08-08T16:08:02.089Z,18.95
2023-08-08T16:10:28.680Z,18.44
2023-08-08T16:12:55.466Z,18.12
2023-08-08T16:15:22.781Z,18.31
2023-08-08T16:17:49.343Z,18.19
2023-08-08T16:20:18.350Z,18.60
2023-08-08T16:22:46.115Z,18.30
2023-08-08T16:25:12.618Z,18.66
2023-08-08T16:27:39.253Z,20.58
2023-08-08T16:30:06.330Z,20.37
2023-08-08T16:32:33.041Z,19.43
2023-08-08T16:34:59.809Z,19.08
2023-08-08T16:37:26.311Z,19.55
2023-08-08T16:39:52.839Z,19.65
2023-08-08T16:42:19.326Z,19.51
2023-08-08T16:44:45.812Z,19.70
2023-08-08T16:47:12.276Z,19.48
2023-08-08T16:49:38.800Z,18.80
2023-08-08T16:52:05.442Z,20.07
2023-08-08T16:54:34.133Z,21.85
2023-08-08T16:57:00.702Z,21.00
2023-08-08T16:59:27.156Z,19.02
2023-08-08T17:01:53.718Z,20.40
2023-08-08T17:04:20.786Z,21.81
2023-08-08T17:06:47.260Z,22.49
2023-08-08T17:09:14.600Z,20.30
2023-08-08T17:11:41.097Z,19.66
2023-08-08T17:14:07.760Z,21.69
2023-08-08T17:16:34.442Z,22.64
2023-08-08T17:19:01.073Z,22.72
2023-08-08T17:21:27.570Z,21.33
2023-08-08T17:23:54.277Z,20.84
2023-08-08T17:26:20.768Z,19.53
2023-08-08T17:28:48.433Z,18.62
2023-08-08T17:31:14.991Z,18.19
2023-08-08T17:33:41.561Z,17.93
2023-08-08T17:36:08.086Z,17.55
2023-08-08T17:38:34.583Z,17.29
2023-08-08T17:41:01.087Z,17.05
2023-08-08T17:43:27.968Z,16.97
2023-08-08T17:45:57.016Z,16.84
2023-08-08T17:48:23.617Z,16.74
2023-08-08T17:50:50.296Z,16.60
2023-08-08T17:53:16.750Z,16.53
2023-08-08T17:55:43.282Z,16.48
2023-08-08T17:58:09.772Z,16.39
2023-08-08T18:00:36.313Z,16.34
2023-08-08T18:03:03.064Z,16.42
2023-08-08T18:05:30.497Z,16.45
2023-08-08T18:07:57.152Z,16.40
2023-08-08T18:10:23.675Z,16.35
2023-08-08T18:12:50.179Z,16.30
2023-08-08T18:15:16.646Z,16.21
2023-08-08T18:17:43.184Z,16.18
2023-08-08T18:20:10.630Z,16.11
2023-08-08T18:22:37.669Z,16.05
2023-08-08T18:25:04.927Z,16.01
2023-08-08T18:27:31.587Z,15.98
2023-08-08T18:29:58.208Z,15.90
2023-08-08T18:32:24.874Z,15.93
2023-08-08T18:34:51.545Z,15.92
2023-08-08T18:37:18.060Z,15.91
2023-08-08T18:39:44.562Z,15.95
2023-08-08T18:42:11.040Z,15.99
2023-08-08T18:44:37.554Z,16.04
2023-08-08T18:47:04.489Z,16.07
2023-08-08T18:49:31.069Z,16.12
2023-08-08T18:51:57.565Z,16.06
2023-08-08T18:54:24.103Z,15.91
2023-08-08T18:56:51.241Z,15.78
2023-08-08T18:59:17.764Z,15.72
2023-08-08T19:01:44.240Z,15.65
2023-08-08T19:04:10.812Z,15.61
2023-08-08T19:06:37.381Z,15.59
2023-08-08T19:09:09.471Z,15.54
2023-08-08T19:11:37.146Z,15.47
2023-08-08T19:14:04.705Z,15.40
2023-08-08T19:16:32.070Z,15.37
2023-08-08T19:18:58.676Z,15.31
2023-08-08T19:21:25.234Z,15.31
2023-08-08T19:23:52.583Z,15.29
2023-08-08T19:26:19.046Z,15.25
2023-08-08T19:28:46.706Z,15.18
2023-08-08T19:31:15.302Z,15.07
2023-08-08T19:33:51.673Z,14.96
2023-08-08T19:36:22.759Z,14.84
2023-08-08T19:38:49.200Z,14.81
2023-08-08T19:41:15.671Z,14.73
2023-08-08T19:43:42.291Z,14.66
2023-08-08T19:46:09.590Z,14.61
2023-08-08T19:48:36.328Z,14.57
2023-08-08T19:51:03.056Z,14.53
2023-08-08T19:53:29.756Z,14.53
2023-08-08T19:55:59.039Z,14.53
2023-08-08T19:58:26.666Z,14.50
2023-08-08T20:00:53.372Z,14.52
2023-08-08T20:03:19.997Z,14.42
2023-08-08T20:05:46.885Z,14.29
2023-08-08T20:08:13.391Z,14.23
2023-08-08T20:10:39.931Z,14.18
2023-08-08T20:13:06.454Z,14.14
2023-08-08T20:15:32.884Z,14.18
2023-08-08T20:17:59.457Z,14.25
2023-08-08T20:20:26.145Z,14.33
2023-08-08T20:22:52.659Z,14.36
2023-08-08T20:25:19.212Z,14.39
2023-08-08T20:27:45.656Z,14.41
2023-08-08T20:30:12.634Z,14.45
2023-08-08T20:32:39.558Z,14.49
2023-08-08T20:35:06.466Z,14.57
2023-08-08T20:37:33.024Z,14.60
2023-08-08T20:39:59.595Z,14.45
2023-08-08T20:42:26.080Z,14.31
2023-08-08T20:44:52.545Z,14.28
2023-08-08T20:47:19.011Z,14.32
2023-08-08T20:49:45.526Z,14.25
2023-08-08T20:52:11.990Z,14.18
2023-08-08T20:54:38.465Z,14.05
2023-08-08T20:57:05.190Z,13.93
2023-08-08T20:59:32.402Z,13.83
2023-08-08T21:01:58.957Z,13.75
2023-08-08T21:04:26.133Z,13.62
2023-08-08T21:06:52.776Z,13.53
2023-08-08T21:09:19.236Z,13.40
2023-08-08T21:11:45.688Z,13.33
2023-08-08T21:14:12.202Z,13.24
2023-08-08T21:16:38.753Z,13.23
2023-08-08T21:19:05.321Z,13.19
2023-08-08T21:21:32.072Z,13.21
2023-08-08T21:23:58.603Z,13.27
2023-08-08T21:26:33.848Z,13.19
2023-08-08T21:29:05.067Z,13.09
2023-08-08T21:31:31.603Z,12.97
2023-08-08T21:33:58.167Z,12.95
2023-08-08T21:36:24.734Z,12.90
2023-08-08T21:38:51.187Z,12.80
2023-08-08T21:41:17.670Z,12.73
2023-08-08T21:43:44.208Z,12.67
2023-08-08T21:46:10.803Z,12.60
2023-08-08T21:48:37.732Z,12.59
2023-08-08T21:51:04.273Z,12.60
2023-08-08T21:53:30.768Z,12.58
2023-08-08T21:55:57.262Z,12.52
2023-08-08T21:58:23.768Z,12.49
2023-08-08T22:00:50.374Z,12.43
2023-08-08T22:03:17.041Z,12.44
2023-08-08T22:05:43.510Z,12.50
2023-08-08T22:08:10.014Z,12.44
2023-08-08T22:10:36.750Z,12.37
2023-08-08T22:13:05.014Z,12.30
2023-08-08T22:15:33.060Z,12.28
2023-08-08T22:18:11.188Z,12.22
2023-08-08T22:20:37.771Z,12.21
2023-08-08T22:23:09.847Z,12.18
2023-08-08T22:25:44.780Z,12.21
2023-08-08T22:28:11.383Z,12.23
2023-08-08T22:30:37.858Z,12.23
2023-08-08T22:33:04.553Z,12.24
2023-08-08T22:35:31.080Z,12.23
2023-08-08T22:37:57.615Z,12.19
2023-08-08T22:40:24.034Z,12.13
2023-08-08T22:42:52.204Z,12.09
2023-08-08T22:45:19.298Z,12.05
2023-08-08T22:47:46.127Z,11.99
2023-08-08T22:50:12.636Z,11.95
2023-08-08T22:52:39.185Z,11.93
2023-08-08T22:55:06.043Z,11.87
2023-08-08T22:57:32.524Z,11.86
2023-08-08T22:59:59.085Z,11.81
2023-08-08T23:02:25.673Z,11.76
2023-08-08T23:04:52.177Z,11.72
2023-08-08T23:07:19.541Z,11.71
2023-08-08T23:09:46.310Z,11.71
2023-08-08T23:12:12.787Z,11.72
2023-08-08T23:14:39.298Z,11.75
2023-08-08T23:17:05.799Z,11.75
2023-08-08T23:19:32.233Z,11.71
2023-08-08T23:21:58.769Z,11.69
2023-08-08T23:24:25.295Z,11.75
2023-08-08T23:26:51.996Z,11.78
2023-08-08T23:29:18.528Z,11.77
2023-08-08T23:31:45.038Z,11.74
2023-08-08T23:34:11.553Z,11.70
2023-08-08T23:36:38.281Z,11.65
2023-08-08T23:39:09.041Z,11.60
2023-08-08T23:41:36.004Z,11.54
2023-08-08T23:44:02.502Z,11.48
2023-08-08T23:46:29.020Z,11.43
2023-08-08T23:48:55.549Z,11.36
2023-08-08T23:51:22.044Z,11.27
2023-08-08T23:53:48.593Z,11.25
2023-08-08T23:56:15.133Z,11.19
2023-08-08T23:58:41.619Z,11.17
